sensor_id;sensor_type;location;lat;lon;timestamp;pressure;altitude;pressure_sealevel;temperature;humidity
52319;BME280;38258;51.148;14.068;2023-03-21T00:00:03;98367.03;;;7.80;100.00
52319;BME280;38258;51.148;14.068;2023-03-21T00:02:31;98371.38;;;7.80;100.00
52319;BME280;38258;51.148;14.068;2023-03-21T00:04:58;98376.53;;;7.84;100.00
52319;BME280;38258;51.148;14.068;2023-03-21T00:07:25;98379.16;;;7.81;100.00
52319;BME280;38258;51.148;14.068;2023-03-21T00:09:55;98369.03;;;7.64;100.00
52319;BME280;38258;51.148;14.068;2023-03-21T00:12:25;98382.31;;;7.48;100.00
52319;BME280;38258;51.148;14.068;2023-03-21T00:14:56;98381.56;;;7.39;100.00
52319;BME280;38258;51.148;14.068;2023-03-21T00:17:29;98376.34;;;7.42;100.00
52319;BME280;38258;51.148;14.068;2023-03-21T00:19:57;98378.97;;;7.40;100.00
52319;BME280;38258;51.148;14.068;2023-03-21T00:22:24;98377.88;;;7.54;100.00
52319;BME280;38258;51.148;14.068;2023-03-21T00:24:53;98376.34;;;7.42;100.00
52319;BME280;38258;51.148;14.068;2023-03-21T00:27:20;98373.63;;;7.48;100.00
52319;BME280;38258;51.148;14.068;2023-03-21T00:29:47;98375.53;;;7.36;100.00
52319;BME280;38258;51.148;14.068;2023-03-21T00:32:17;98382.28;;;7.50;100.00
52319;BME280;38258;51.148;14.068;2023-03-21T00:34:46;98374.47;;;7.50;100.00
52319;BME280;38258;51.148;14.068;2023-03-21T00:37:14;98368.59;;;7.37;100.00
52319;BME280;38258;51.148;14.068;2023-03-21T00:39:43;98380.56;;;7.49;100.00
52319;BME280;38258;51.148;14.068;2023-03-21T00:42:14;98379.84;;;7.39;100.00
52319;BME280;38258;51.148;14.068;2023-03-21T00:44:41;98375.72;;;7.24;100.00
52319;BME280;38258;51.148;14.068;2023-03-21T00:47:10;98386.44;;;7.04;100.00
52319;BME280;38258;51.148;14.068;2023-03-21T00:49:37;98391.81;;;6.90;100.00
52319;BME280;38258;51.148;14.068;2023-03-21T00:52:08;98378.94;;;6.82;100.00
52319;BME280;38258;51.148;14.068;2023-03-21T00:54:36;98366.22;;;6.59;100.00
52319;BME280;38258;51.148;14.068;2023-03-21T00:57:03;98363.53;;;6.65;100.00
52319;BME280;38258;51.148;14.068;2023-03-21T00:59:31;98367.09;;;6.58;100.00
52319;BME280;38258;51.148;14.068;2023-03-21T01:01:58;98358.44;;;6.57;100.00
52319;BME280;38258;51.148;14.068;2023-03-21T01:04:25;98355.78;;;6.63;100.00
52319;BME280;38258;51.148;14.068;2023-03-21T01:06:53;98359.25;;;6.62;100.00
52319;BME280;38258;51.148;14.068;2023-03-21T01:09:22;98359.88;;;6.82;100.00
52319;BME280;38258;51.148;14.068;2023-03-21T01:11:49;98364.31;;;6.73;100.00
52319;BME280;38258;51.148;14.068;2023-03-21T01:14:19;98362.66;;;6.66;100.00
52319;BME280;38258;51.148;14.068;2023-03-21T01:16:48;98364.47;;;6.61;100.00
52319;BME280;38258;51.148;14.068;2023-03-21T01:19:18;98344.75;;;6.46;100.00
52319;BME280;38258;51.148;14.068;2023-03-21T01:21:45;98354.91;;;6.63;100.00
52319;BME280;38258;51.148;14.068;2023-03-21T01:24:11;98357.50;;;6.63;100.00
52319;BME280;38258;51.148;14.068;2023-03-21T01:26:38;98335.72;;;6.72;100.00
52319;BME280;38258;51.148;14.068;2023-03-21T01:29:05;98350.31;;;6.84;100.00
52319;BME280;38258;51.148;14.068;2023-03-21T01:31:32;98358.84;;;6.92;100.00
52319;BME280;38258;51.148;14.068;2023-03-21T01:34:00;98357.41;;;6.71;100.00
52319;BME280;38258;51.148;14.068;2023-03-21T01:36:27;98356.66;;;6.61;100.00
52319;BME280;38258;51.148;14.068;2023-03-21T01:38:59;98358.25;;;6.73;100.00
52319;BME280;38258;51.148;14.068;2023-03-21T01:41:28;98361.75;;;6.69;100.00
52319;BME280;38258;51.148;14.068;2023-03-21T01:43:55;98367.06;;;6.62;100.00
52319;BME280;38258;51.148;14.068;2023-03-21T01:46:34;98367.84;;;6.66;100.00
52319;BME280;38258;51.148;14.068;2023-03-21T01:49:35;98360.03;;;6.69;100.00
52319;BME280;38258;51.148;14.068;2023-03-21T01:52:13;98366.38;;;6.46;100.00
52319;BME280;38258;51.148;14.068;2023-03-21T01:54:42;98357.88;;;6.32;100.00
52319;BME280;38258;51.148;14.068;2023-03-21T01:57:13;98357.88;;;6.32;100.00
52319;BME280;38258;51.148;14.068;2023-03-21T01:59:44;98350.78;;;6.45;100.00
52319;BME280;38258;51.148;14.068;2023-03-21T02:02:44;98349.06;;;6.45;100.00
52319;BME280;38258;51.148;14.068;2023-03-21T02:05:50;98350.88;;;6.39;100.00
52319;BME280;38258;51.148;14.068;2023-03-21T02:08:18;98343.16;;;6.32;100.00
52319;BME280;38258;51.148;14.068;2023-03-21T02:10:47;98333.56;;;6.38;100.00
52319;BME280;38258;51.148;14.068;2023-03-21T02:13:23;98335.47;;;6.21;100.00
52319;BME280;38258;51.148;14.068;2023-03-21T02:15:55;98340.81;;;6.12;100.00
52319;BME280;38258;51.148;14.068;2023-03-21T02:18:37;98338.16;;;6.15;100.00
52319;BME280;38258;51.148;14.068;2023-03-21T02:25:01;98344.47;;;5.89;100.00
52319;BME280;38258;51.148;14.068;2023-03-21T02:27:36;98332.44;;;5.79;100.00
52319;BME280;38258;51.148;14.068;2023-03-21T02:30:30;98341.25;;;5.64;100.00
52319;BME280;38258;51.148;14.068;2023-03-21T02:36:44;98330.72;;;5.78;100.00
52319;BME280;38258;51.148;14.068;2023-03-21T02:39:13;98337.50;;;5.91;100.00
52319;BME280;38258;51.148;14.068;2023-03-21T02:41:51;98334.16;;;5.80;100.00
52319;BME280;38258;51.148;14.068;2023-03-21T02:44:34;98332.28;;;5.94;100.00
52319;BME280;38258;51.148;14.068;2023-03-21T02:47:06;98332.50;;;5.73;100.00
52319;BME280;38258;51.148;14.068;2023-03-21T02:49:41;98325.53;;;5.81;100.00
52319;BME280;38258;51.148;14.068;2023-03-21T02:52:15;98341.81;;;5.92;100.00
52319;BME280;38258;51.148;14.068;2023-03-21T02:54:45;98341.81;;;5.96;100.00
52319;BME280;38258;51.148;14.068;2023-03-21T02:57:16;98347.81;;;6.02;100.00
52319;BME280;38258;51.148;14.068;2023-03-21T02:59:46;98345.16;;;6.07;100.00
52319;BME280;38258;51.148;14.068;2023-03-21T03:02:20;98349.44;;;6.13;100.00
52319;BME280;38258;51.148;14.068;2023-03-21T03:04:48;98347.72;;;6.13;100.00
52319;BME280;38258;51.148;14.068;2023-03-21T03:07:30;98335.47;;;6.23;100.00
52319;BME280;38258;51.148;14.068;2023-03-21T03:10:19;98338.06;;;6.23;100.00
52319;BME280;38258;51.148;14.068;2023-03-21T03:12:55;98332.88;;;6.23;100.00
52319;BME280;38258;51.148;14.068;2023-03-21T03:15:29;98338.91;;;6.27;100.00
52319;BME280;38258;51.148;14.068;2023-03-21T03:18:10;98328.56;;;6.20;100.00
52319;BME280;38258;51.148;14.068;2023-03-21T03:20:45;98340.81;;;6.09;100.00
52319;BME280;38258;51.148;14.068;2023-03-21T03:23:22;98342.41;;;6.22;100.00
52319;BME280;38258;51.148;14.068;2023-03-21T03:25:55;98345.88;;;6.23;100.00
52319;BME280;38258;51.148;14.068;2023-03-21T03:28:28;98340.63;;;6.26;100.00
52319;BME280;38258;51.148;14.068;2023-03-21T03:30:58;98336.22;;;6.34;100.00
52319;BME280;38258;51.148;14.068;2023-03-21T03:33:28;98335.44;;;6.28;100.00
52319;BME280;38258;51.148;14.068;2023-03-21T03:35:58;98337.19;;;6.24;100.00
52319;BME280;38258;51.148;14.068;2023-03-21T03:38:27;98337.19;;;6.26;100.00
52319;BME280;38258;51.148;14.068;2023-03-21T03:40:58;98341.56;;;6.20;100.00
52319;BME280;38258;51.148;14.068;2023-03-21T03:43:44;98339.00;;;6.17;100.00
52319;BME280;38258;51.148;14.068;2023-03-21T03:46:17;98343.25;;;6.25;100.00
52319;BME280;38258;51.148;14.068;2023-03-21T03:48:48;98339.81;;;6.22;100.00
52319;BME280;38258;51.148;14.068;2023-03-21T03:51:19;98340.72;;;6.20;100.00
52319;BME280;38258;51.148;14.068;2023-03-21T03:54:08;98340.66;;;6.25;100.00
52319;BME280;38258;51.148;14.068;2023-03-21T03:56:38;98324.44;;;6.01;100.00
52319;BME280;38258;51.148;14.068;2023-03-21T03:59:05;98343.31;;;6.20;100.00
52319;BME280;38258;51.148;14.068;2023-03-21T04:01:58;98338.88;;;6.28;100.00
52319;BME280;38258;51.148;14.068;2023-03-21T04:04:25;98340.72;;;6.18;100.00
52319;BME280;38258;51.148;14.068;2023-03-21T04:06:54;98336.38;;;6.20;100.00
52319;BME280;38258;51.148;14.068;2023-03-21T04:09:24;98328.66;;;6.14;100.00
52319;BME280;38258;51.148;14.068;2023-03-21T04:11:53;98327.09;;;5.94;100.00
52319;BME280;38258;51.148;14.068;2023-03-21T04:14:20;98329.69;;;5.94;100.00
52319;BME280;38258;51.148;14.068;2023-03-21T04:16:47;98335.75;;;5.93;100.00
52319;BME280;38258;51.148;14.068;2023-03-21T04:19:15;98330.47;;;6.06;100.00
52319;BME280;38258;51.148;14.068;2023-03-21T04:21:43;98326.25;;;5.92;100.00
52319;BME280;38258;51.148;14.068;2023-03-21T04:24:11;98331.41;;;5.97;100.00
52319;BME280;38258;51.148;14.068;2023-03-21T04:26:40;98318.50;;;5.89;100.00
52319;BME280;38258;51.148;14.068;2023-03-21T04:29:36;98329.63;;;6.04;100.00
52319;BME280;38258;51.148;14.068;2023-03-21T04:32:29;98335.03;;;5.79;100.00
52319;BME280;38258;51.148;14.068;2023-03-21T04:35:08;98322.13;;;5.74;100.00
52319;BME280;38258;51.148;14.068;2023-03-21T04:37:36;98339.25;;;5.91;100.00
52319;BME280;38258;51.148;14.068;2023-03-21T04:40:06;98331.56;;;5.82;100.00
52319;BME280;38258;51.148;14.068;2023-03-21T04:42:35;98329.03;;;5.74;100.00
52319;BME280;38258;51.148;14.068;2023-03-21T04:45:03;98334.19;;;5.77;100.00
52319;BME280;38258;51.148;14.068;2023-03-21T04:47:30;98341.81;;;5.94;100.00
52319;BME280;38258;51.148;14.068;2023-03-21T04:49:56;98337.59;;;5.85;100.00
52319;BME280;38258;51.148;14.068;2023-03-21T04:52:23;98333.28;;;5.84;100.00
52319;BME280;38258;51.148;14.068;2023-03-21T04:54:50;98338.47;;;5.83;100.00
52319;BME280;38258;51.148;14.068;2023-03-21T04:57:17;98328.16;;;5.76;100.00
52319;BME280;38258;51.148;14.068;2023-03-21T04:59:45;98323.78;;;5.83;100.00
52319;BME280;38258;51.148;14.068;2023-03-21T05:02:13;98327.16;;;5.88;100.00
52319;BME280;38258;51.148;14.068;2023-03-21T05:04:40;98328.88;;;5.89;100.00
52319;BME280;38258;51.148;14.068;2023-03-21T05:07:07;98326.38;;;5.83;100.00
52319;BME280;38258;51.148;14.068;2023-03-21T05:09:34;98329.88;;;5.76;100.00
52319;BME280;38258;51.148;14.068;2023-03-21T05:12:02;98326.44;;;5.72;100.00
52319;BME280;38258;51.148;14.068;2023-03-21T05:14:30;98330.75;;;5.75;100.00
52319;BME280;38258;51.148;14.068;2023-03-21T05:16:59;98335.78;;;5.90;100.00
52319;BME280;38258;51.148;14.068;2023-03-21T05:19:30;98334.13;;;5.86;100.00
52319;BME280;38258;51.148;14.068;2023-03-21T05:22:02;98338.28;;;6.03;100.00
52319;BME280;38258;51.148;14.068;2023-03-21T05:24:31;98340.94;;;5.93;100.00
52319;BME280;38258;51.148;14.068;2023-03-21T05:26:59;98337.47;;;5.98;100.00
52319;BME280;38258;51.148;14.068;2023-03-21T05:29:30;98335.03;;;5.82;100.00
52319;BME280;38258;51.148;14.068;2023-03-21T05:32:02;98341.03;;;5.89;100.00
52319;BME280;38258;51.148;14.068;2023-03-21T05:34:29;98348.78;;;5.92;100.00
52319;BME280;38258;51.148;14.068;2023-03-21T05:36:57;98351.28;;;5.98;100.00
52319;BME280;38258;51.148;14.068;2023-03-21T05:39:28;98351.28;;;6.03;100.00
52319;BME280;38258;51.148;14.068;2023-03-21T05:42:02;98330.56;;;5.95;100.00
52319;BME280;38258;51.148;14.068;2023-03-21T05:44:29;98341.72;;;6.06;100.00
52319;BME280;38258;51.148;14.068;2023-03-21T05:46:57;98349.56;;;6.03;100.00
52319;BME280;38258;51.148;14.068;2023-03-21T05:49:32;98346.00;;;6.09;100.00
52319;BME280;38258;51.148;14.068;2023-03-21T05:52:00;98350.31;;;6.12;100.00
52319;BME280;38258;51.148;14.068;2023-03-21T05:54:27;98339.13;;;6.05;100.00
52319;BME280;38258;51.148;14.068;2023-03-21T05:56:54;98352.06;;;6.10;100.00
52319;BME280;38258;51.148;14.068;2023-03-21T05:59:41;98335.69;;;6.04;100.00
52319;BME280;38258;51.148;14.068;2023-03-21T06:02:08;98343.34;;;6.15;100.00
52319;BME280;38258;51.148;14.068;2023-03-21T06:04:36;98347.66;;;6.16;100.00
52319;BME280;38258;51.148;14.068;2023-03-21T06:07:03;98341.59;;;6.16;100.00
52319;BME280;38258;51.148;14.068;2023-03-21T06:09:30;98354.25;;;6.47;100.00
52319;BME280;38258;51.148;14.068;2023-03-21T06:12:01;98352.66;;;6.35;100.00
52319;BME280;38258;51.148;14.068;2023-03-21T06:14:38;98357.00;;;6.34;100.00
52319;BME280;38258;51.148;14.068;2023-03-21T06:17:21;98343.34;;;6.15;100.00
52319;BME280;38258;51.148;14.068;2023-03-21T06:20:23;98358.84;;;6.25;100.00
52319;BME280;38258;51.148;14.068;2023-03-21T06:23:07;98346.00;;;6.11;100.00
52319;BME280;38258;51.148;14.068;2023-03-21T06:25:34;98350.19;;;6.24;100.00
52319;BME280;38258;51.148;14.068;2023-03-21T06:28:01;98351.84;;;6.31;100.00
52319;BME280;38258;51.148;14.068;2023-03-21T06:30:28;98353.84;;;6.06;100.00
52319;BME280;38258;51.148;14.068;2023-03-21T06:33:18;98359.84;;;6.11;100.00
52319;BME280;38258;51.148;14.068;2023-03-21T06:35:50;98363.16;;;6.26;100.00
52319;BME280;38258;51.148;14.068;2023-03-21T06:38:18;98362.06;;;6.44;100.00
52319;BME280;38258;51.148;14.068;2023-03-21T06:40:46;98362.91;;;6.47;100.00
52319;BME280;38258;51.148;14.068;2023-03-21T06:43:14;98356.97;;;6.38;100.00
52319;BME280;38258;51.148;14.068;2023-03-21T06:45:42;98368.97;;;6.45;100.00
52319;BME280;38258;51.148;14.068;2023-03-21T06:48:10;98362.91;;;6.47;100.00
52319;BME280;38258;51.148;14.068;2023-03-21T06:50:48;98365.63;;;6.35;100.00
52319;BME280;38258;51.148;14.068;2023-03-21T06:53:19;98365.44;;;6.54;100.00
52319;BME280;38258;51.148;14.068;2023-03-21T06:56:09;98375.97;;;6.41;100.00
52319;BME280;38258;51.148;14.068;2023-03-21T06:58:38;98377.56;;;6.53;100.00
52319;BME280;38258;51.148;14.068;2023-03-21T07:01:08;98381.91;;;6.49;100.00
52319;BME280;38258;51.148;14.068;2023-03-21T07:04:01;98375.00;;;6.48;100.00
52319;BME280;38258;51.148;14.068;2023-03-21T07:06:29;98376.72;;;6.49;100.00
52319;BME280;38258;51.148;14.068;2023-03-21T07:08:58;98363.00;;;6.38;100.00
52319;BME280;38258;51.148;14.068;2023-03-21T07:11:31;98376.06;;;6.32;100.00
52319;BME280;38258;51.148;14.068;2023-03-21T07:13:59;98381.41;;;6.21;100.00
52319;BME280;38258;51.148;14.068;2023-03-21T07:16:26;98380.28;;;6.42;100.00
52319;BME280;38258;51.148;14.068;2023-03-21T07:18:54;98382.69;;;6.58;100.00
52319;BME280;38258;51.148;14.068;2023-03-21T07:21:21;98391.53;;;6.43;100.00
52319;BME280;38258;51.148;14.068;2023-03-21T07:23:48;98392.22;;;6.60;100.00
52319;BME280;38258;51.148;14.068;2023-03-21T07:26:17;98386.00;;;6.71;100.00
52319;BME280;38258;51.148;14.068;2023-03-21T07:28:43;98381.81;;;6.59;100.00
52319;BME280;38258;51.148;14.068;2023-03-21T07:31:12;98383.63;;;6.54;100.00
52319;BME280;38258;51.148;14.068;2023-03-21T07:33:39;98387.06;;;6.56;100.00
52319;BME280;38258;51.148;14.068;2023-03-21T07:36:09;98391.22;;;6.69;100.00
52319;BME280;38258;51.148;14.068;2023-03-21T07:38:37;98392.03;;;6.74;100.00
52319;BME280;38258;51.148;14.068;2023-03-21T07:41:05;98389.75;;;6.48;100.00
52319;BME280;38258;51.148;14.068;2023-03-21T07:43:35;98402.53;;;6.65;100.00
52319;BME280;38258;51.148;14.068;2023-03-21T07:46:04;98397.16;;;6.79;100.00
52319;BME280;38258;51.148;14.068;2023-03-21T07:48:31;98397.06;;;6.85;100.00
52319;BME280;38258;51.148;14.068;2023-03-21T07:50:59;98392.72;;;6.87;100.00
52319;BME280;38258;51.148;14.068;2023-03-21T07:53:26;98386.03;;;6.68;100.00
52319;BME280;38258;51.148;14.068;2023-03-21T07:55:54;98385.34;;;7.20;100.00
52319;BME280;38258;51.148;14.068;2023-03-21T07:58:21;98390.16;;;7.45;100.00
52319;BME280;38258;51.148;14.068;2023-03-21T08:00:50;98387.59;;;7.42;100.00
52319;BME280;38258;51.148;14.068;2023-03-21T08:03:17;98390.53;;;7.20;100.00
52319;BME280;38258;51.148;14.068;2023-03-21T08:05:44;98393.22;;;7.16;100.00
52319;BME280;38258;51.148;14.068;2023-03-21T08:08:11;98391.31;;;7.27;100.00
52319;BME280;38258;51.148;14.068;2023-03-21T08:10:38;98389.66;;;7.20;100.00
52319;BME280;38258;51.148;14.068;2023-03-21T08:13:05;98388.06;;;7.10;100.00
52319;BME280;38258;51.148;14.068;2023-03-21T08:15:31;98387.13;;;7.17;100.00
52319;BME280;38258;51.148;14.068;2023-03-21T08:17:59;98388.06;;;7.10;100.00
52319;BME280;38258;51.148;14.068;2023-03-21T08:20:26;98385.56;;;7.61;100.00
52319;BME280;38258;51.148;14.068;2023-03-21T08:22:54;98394.66;;;7.89;100.00
52319;BME280;38258;51.148;14.068;2023-03-21T08:25:21;98386.88;;;7.86;100.00
52319;BME280;38258;51.148;14.068;2023-03-21T08:27:49;98388.09;;;7.68;100.00
52319;BME280;38258;51.148;14.068;2023-03-21T08:30:17;98394.25;;;7.62;100.00
52319;BME280;38258;51.148;14.068;2023-03-21T08:32:44;98389.81;;;7.66;100.00
52319;BME280;38258;51.148;14.068;2023-03-21T08:35:14;98390.75;;;7.63;100.00
52319;BME280;38258;51.148;14.068;2023-03-21T08:37:42;98382.91;;;7.66;100.00
52319;BME280;38258;51.148;14.068;2023-03-21T08:40:11;98390.13;;;7.47;100.00
52319;BME280;38258;51.148;14.068;2023-03-21T08:42:39;98387.41;;;7.56;100.00
52319;BME280;38258;51.148;14.068;2023-03-21T08:45:08;98399.06;;;7.32;100.00
52319;BME280;38258;51.148;14.068;2023-03-21T08:47:35;98399.78;;;7.42;100.00
52319;BME280;38258;51.148;14.068;2023-03-21T08:50:03;98392.53;;;7.59;100.00
52319;BME280;38258;51.148;14.068;2023-03-21T08:52:32;98388.75;;;8.28;100.00
52319;BME280;38258;51.148;14.068;2023-03-21T08:54:59;98387.22;;;8.16;100.00
52319;BME280;38258;51.148;14.068;2023-03-21T08:57:26;98386.94;;;7.84;100.00
52319;BME280;38258;51.148;14.068;2023-03-21T08:59:53;98385.50;;;7.64;100.00
52319;BME280;38258;51.148;14.068;2023-03-21T09:02:20;98380.16;;;7.74;100.00
52319;BME280;38258;51.148;14.068;2023-03-21T09:04:47;98393.69;;;7.95;100.00
52319;BME280;38258;51.148;14.068;2023-03-21T09:07:13;98386.88;;;7.87;100.00
52319;BME280;38258;51.148;14.068;2023-03-21T09:09:43;98388.03;;;7.69;100.00
52319;BME280;38258;51.148;14.068;2023-03-21T09:12:11;98384.00;;;8.01;100.00
52319;BME280;38258;51.148;14.068;2023-03-21T09:14:38;98387.66;;;7.92;100.00
52319;BME280;38258;51.148;14.068;2023-03-21T09:17:05;98386.69;;;8.45;100.00
52319;BME280;38258;51.148;14.068;2023-03-21T09:19:32;98380.78;;;8.81;100.00
52319;BME280;38258;51.148;14.068;2023-03-21T09:21:59;98377.50;;;8.71;100.00
52319;BME280;38258;51.148;14.068;2023-03-21T09:24:26;98400.00;;;8.75;100.00
52319;BME280;38258;51.148;14.068;2023-03-21T09:26:54;98393.56;;;8.51;100.00
52319;BME280;38258;51.148;14.068;2023-03-21T09:29:21;98380.88;;;8.31;100.00
52319;BME280;38258;51.148;14.068;2023-03-21T09:31:48;98385.03;;;7.92;100.00
52319;BME280;38258;51.148;14.068;2023-03-21T09:34:17;98403.41;;;7.85;100.00
52319;BME280;38258;51.148;14.068;2023-03-21T09:36:44;98394.13;;;8.20;100.00
52319;BME280;38258;51.148;14.068;2023-03-21T09:39:12;98392.63;;;8.05;100.00
52319;BME280;38258;51.148;14.068;2023-03-21T09:41:56;98382.72;;;8.26;100.00
52319;BME280;38258;51.148;14.068;2023-03-21T09:44:40;98390.47;;;8.76;100.00
52319;BME280;38258;51.148;14.068;2023-03-21T09:47:15;98387.13;;;8.69;100.00
52319;BME280;38258;51.148;14.068;2023-03-21T09:49:48;98389.50;;;8.79;100.00
52319;BME280;38258;51.148;14.068;2023-03-21T09:52:19;98378.88;;;8.89;100.00
52319;BME280;38258;51.148;14.068;2023-03-21T09:54:48;98388.50;;;8.86;100.00
52319;BME280;38258;51.148;14.068;2023-03-21T09:57:28;98381.00;;;8.70;100.00
52319;BME280;38258;51.148;14.068;2023-03-21T09:59:58;98390.44;;;8.30;100.00
52319;BME280;38258;51.148;14.068;2023-03-21T10:02:34;98377.22;;;8.41;100.00
52319;BME280;38258;51.148;14.068;2023-03-21T10:05:10;98384.25;;;8.36;100.00
52319;BME280;38258;51.148;14.068;2023-03-21T10:07:40;98356.97;;;8.56;100.00
52319;BME280;38258;51.148;14.068;2023-03-21T10:10:14;98377.50;;;8.71;100.00
52319;BME280;38258;51.148;14.068;2023-03-21T10:12:46;98380.22;;;8.65;100.00
52319;BME280;38258;51.148;14.068;2023-03-21T10:15:18;98373.69;;;8.88;100.00
52319;BME280;38258;51.148;14.068;2023-03-21T10:17:49;98368.03;;;9.07;100.00
52319;BME280;38258;51.148;14.068;2023-03-21T10:20:19;98375.34;;;9.30;100.00
52319;BME280;38258;51.148;14.068;2023-03-21T10:22:47;98373.25;;;9.44;100.00
52319;BME280;38258;51.148;14.068;2023-03-21T10:25:16;98372.53;;;9.39;100.00
52319;BME280;38258;51.148;14.068;2023-03-21T10:27:46;98369.25;;;9.66;100.00
52319;BME280;38258;51.148;14.068;2023-03-21T10:30:22;98365.66;;;10.38;100.00
52319;BME280;38258;51.148;14.068;2023-03-21T10:32:51;98348.25;;;11.54;100.00
52319;BME280;38258;51.148;14.068;2023-03-21T10:35:18;98354.53;;;12.02;100.00
52319;BME280;38258;51.148;14.068;2023-03-21T10:37:45;98352.81;;;11.47;100.00
52319;BME280;38258;51.148;14.068;2023-03-21T10:40:14;98348.22;;;11.81;100.00
52319;BME280;38258;51.148;14.068;2023-03-21T10:42:41;98346.81;;;11.70;100.00
52319;BME280;38258;51.148;14.068;2023-03-21T10:45:15;98332.56;;;12.05;100.00
52319;BME280;38258;51.148;14.068;2023-03-21T10:47:46;98340.16;;;12.38;100.00
52319;BME280;38258;51.148;14.068;2023-03-21T10:50:16;98337.25;;;11.42;100.00
52319;BME280;38258;51.148;14.068;2023-03-21T10:52:47;98328.19;;;11.26;100.00
52319;BME280;38258;51.148;14.068;2023-03-21T10:55:21;98346.31;;;11.59;100.00
52319;BME280;38258;51.148;14.068;2023-03-21T10:57:58;98347.56;;;11.49;100.00
52319;BME280;38258;51.148;14.068;2023-03-21T11:00:34;98347.69;;;11.71;100.00
52319;BME280;38258;51.148;14.068;2023-03-21T11:03:03;98343.41;;;11.68;100.00
52319;BME280;38258;51.148;14.068;2023-03-21T11:05:34;98350.63;;;11.33;100.00
52319;BME280;38258;51.148;14.068;2023-03-21T11:08:04;98337.59;;;11.05;100.00
52319;BME280;38258;51.148;14.068;2023-03-21T11:10:33;98326.06;;;11.10;100.00
52319;BME280;38258;51.148;14.068;2023-03-21T11:13:05;98351.44;;;11.08;100.00
52319;BME280;38258;51.148;14.068;2023-03-21T11:15:41;98336.97;;;11.52;100.00
52319;BME280;38258;51.148;14.068;2023-03-21T11:18:17;98338.81;;;12.00;100.00
52319;BME280;38258;51.148;14.068;2023-03-21T11:20:49;98321.97;;;12.33;100.00
52319;BME280;38258;51.148;14.068;2023-03-21T11:23:16;98304.91;;;12.45;100.00
52319;BME280;38258;51.148;14.068;2023-03-21T11:25:47;98339.09;;;12.18;100.00
52319;BME280;38258;51.148;14.068;2023-03-21T11:28:16;98331.66;;;11.53;100.00
52319;BME280;38258;51.148;14.068;2023-03-21T11:30:53;98289.41;;;11.64;100.00
52319;BME280;38258;51.148;14.068;2023-03-21T11:33:22;98321.88;;;11.85;100.00
52319;BME280;38258;51.148;14.068;2023-03-21T11:35:59;98316.56;;;11.62;100.00
52319;BME280;38258;51.148;14.068;2023-03-21T11:38:30;98322.97;;;11.53;100.00
52319;BME280;38258;51.148;14.068;2023-03-21T11:40:58;98314.28;;;11.78;100.00
52319;BME280;38258;51.148;14.068;2023-03-21T11:43:28;98319.22;;;12.12;100.00
52319;BME280;38258;51.148;14.068;2023-03-21T11:45:57;98317.03;;;12.49;100.00
52319;BME280;38258;51.148;14.068;2023-03-21T11:48:26;98311.75;;;12.95;100.00
52319;BME280;38258;51.148;14.068;2023-03-21T11:50:58;98302.03;;;13.85;100.00
52319;BME280;38258;51.148;14.068;2023-03-21T11:53:36;98302.44;;;12.88;100.00
52319;BME280;38258;51.148;14.068;2023-03-21T11:56:27;98297.16;;;12.42;100.00
52319;BME280;38258;51.148;14.068;2023-03-21T11:59:06;98281.72;;;13.47;100.00
52319;BME280;38258;51.148;14.068;2023-03-21T12:01:45;98285.78;;;13.54;100.00
52319;BME280;38258;51.148;14.068;2023-03-21T12:04:19;98280.00;;;13.67;100.00
52319;BME280;38258;51.148;14.068;2023-03-21T12:06:58;98276.53;;;14.65;100.00
52319;BME280;38258;51.148;14.068;2023-03-21T12:09:40;98275.41;;;14.90;95.57
52319;BME280;38258;51.148;14.068;2023-03-21T12:12:17;98261.81;;;15.00;92.26
52319;BME280;38258;51.148;14.068;2023-03-21T12:14:55;98265.34;;;14.98;89.15
52319;BME280;38258;51.148;14.068;2023-03-21T12:17:34;98264.81;;;14.73;90.29
52319;BME280;38258;51.148;14.068;2023-03-21T12:20:38;98263.31;;;14.67;87.57
52319;BME280;38258;51.148;14.068;2023-03-21T12:23:34;98264.97;;;13.70;94.77
52319;BME280;38258;51.148;14.068;2023-03-21T12:26:10;98256.19;;;14.50;98.55
52319;BME280;38258;51.148;14.068;2023-03-21T12:28:50;98252.22;;;14.60;94.04
52319;BME280;38258;51.148;14.068;2023-03-21T12:34:15;98233.63;;;13.45;99.38
52319;BME280;38258;51.148;14.068;2023-03-21T12:36:59;98240.16;;;13.97;100.00
52319;BME280;38258;51.148;14.068;2023-03-21T12:39:34;98243.06;;;13.28;100.00
52319;BME280;38258;51.148;14.068;2023-03-21T12:42:25;98219.69;;;13.43;100.00
52319;BME280;38258;51.148;14.068;2023-03-21T12:44:57;98228.31;;;12.81;100.00
52319;BME280;38258;51.148;14.068;2023-03-21T12:47:30;98231.44;;;13.12;100.00
52319;BME280;38258;51.148;14.068;2023-03-21T12:50:03;98210.84;;;13.23;100.00
52319;BME280;38258;51.148;14.068;2023-03-21T12:52:33;98242.34;;;12.58;100.00
52319;BME280;38258;51.148;14.068;2023-03-21T12:55:05;98232.00;;;13.63;100.00
52319;BME280;38258;51.148;14.068;2023-03-21T12:57:36;98217.94;;;13.83;95.72
52319;BME280;38258;51.148;14.068;2023-03-21T13:00:10;98222.22;;;13.86;95.78
52319;BME280;38258;51.148;14.068;2023-03-21T13:02:41;98212.44;;;13.69;99.95
52319;BME280;38258;51.148;14.068;2023-03-21T13:05:16;98214.91;;;13.93;97.83
52319;BME280;38258;51.148;14.068;2023-03-21T13:07:47;98203.56;;;14.31;91.60
52319;BME280;38258;51.148;14.068;2023-03-21T13:10:18;98205.41;;;14.28;95.20
52319;BME280;38258;51.148;14.068;2023-03-21T13:13:02;98194.63;;;14.16;96.26
52319;BME280;38258;51.148;14.068;2023-03-21T13:15:42;98198.28;;;14.50;91.92
52319;BME280;38258;51.148;14.068;2023-03-21T13:18:21;98187.25;;;13.44;98.91
52319;BME280;38258;51.148;14.068;2023-03-21T13:20:53;98190.13;;;13.17;100.00